Loveland, Colorado
Current Conditions -  °F | °C
As of 1:55 AM on Wednesday 26 Nov 2014 (Local Time) from KFNL Reporting Station
Overcast Overcast  
Wind Chill: 20°   Ceiling: 2900
Heat Index: 28°   Visibility: 10mi
Dew Point: 21°   Wind: 8mph
Humidity: 74%   Direction: 110°ESE
Pressure: 30.17"   Gusts: NA
Location:  40.39°N, 105.07°W
Report Text: KFNL 260855Z AUTO 11007KT 10SM OVC029 M02/M06 A3017 RMK AO1 52017
Loading
Personal Weather Stations






























Interactive Weather Map New forecast layout! Learn more

10-Day Weather Forecast

Advertisements
Track Severe Weather on mobile